Time;durP1;ratioP1;P1;durP2;ratioP2;P2;SDS_P1;SDS_P2;PMS_P1;PMS_P2;Temp;Humidity;BMP_temperature;BMP_pressure;BME280_temperature;BME280_humidity;BME280_pressure;Samples;Min_cycle;Max_cycle;Signal;HPM_P1;HPM_P2
2022/03/26 00:01:53;;;;;;;65.00;34.00;;;;;;;4.39;59.86;101289.24;84692;1324;22865;-73
2022/03/26 00:04:05;;;;;;;67.10;33.20;;;;;;;4.37;60.00;101289.92;84596;1331;22591;-79
2022/03/26 00:06:14;;;;;;;66.90;33.00;;;;;;;4.36;60.22;101292.52;84680;1329;22860;-79
2022/03/26 00:08:26;;;;;;;65.20;33.60;;;;;;;4.35;60.49;101292.68;84688;1324;22679;-77
2022/03/26 00:10:35;;;;;;;63.10;32.20;;;;;;;4.35;60.72;101287.50;84699;1332;22913;-79
2022/03/26 00:12:49;;;;;;;58.60;31.10;;;;;;;4.35;60.92;101288.72;84634;1333;22619;-78
2022/03/26 00:15:00;;;;;;;65.80;32.60;;;;;;;4.35;60.87;101287.85;84711;1330;25317;-79
2022/03/26 00:17:10;;;;;;;68.20;35.30;;;;;;;4.36;60.81;101281.27;84614;1329;22600;-79
2022/03/26 00:19:19;;;;;;;65.00;34.40;;;;;;;4.36;61.30;101279.72;84695;1328;22593;-79
2022/03/26 00:21:28;;;;;;;79.90;36.30;;;;;;;4.37;61.49;101273.50;84693;1332;25259;-79
2022/03/26 00:23:36;;;;;;;;;;;;;;;4.38;61.77;101268.85;84646;1333;25493;-74
2022/03/26 00:25:45;;;;;;;68.90;35.60;;;;;;;4.36;61.74;101265.56;84691;1328;22612;-73
2022/03/26 00:27:58;;;;;;;62.00;31.90;;;;;;;4.37;61.53;101265.39;84621;1333;22603;-73
2022/03/26 00:30:12;;;;;;;63.10;33.80;;;;;;;4.35;61.69;101267.46;84690;1329;22812;-73
2022/03/26 00:32:21;;;;;;;67.40;34.80;;;;;;;4.33;61.73;101270.03;84627;1332;22880;-73
2022/03/26 00:34:30;;;;;;;65.50;34.20;;;;;;;4.32;61.89;101273.15;84639;1330;22600;-80
2022/03/26 00:36:41;;;;;;;72.50;36.40;;;;;;;4.30;62.05;101264.00;84665;1329;22610;-79
2022/03/26 00:38:53;;;;;;;62.60;35.00;;;;;;;4.28;62.26;101257.25;84679;1328;22585;-74
2022/03/26 00:41:02;;;;;;;73.60;34.00;;;;;;;4.27;62.07;101260.19;84626;1325;22612;-73
2022/03/26 00:43:11;;;;;;;68.70;32.70;;;;;;;4.25;62.20;101263.98;84649;1330;22599;-78
2022/03/26 00:45:24;;;;;;;69.40;33.70;;;;;;;4.24;62.37;101260.89;84667;1328;23962;-79
2022/03/26 00:47:33;;;;;;;61.00;32.10;;;;;;;4.24;62.61;101259.68;84627;1332;24294;-79
2022/03/26 00:49:43;;;;;;;65.40;33.70;;;;;;;4.24;62.66;101259.32;84678;1331;22767;-80
2022/03/26 00:51:54;;;;;;;68.10;34.70;;;;;;;4.23;62.75;101257.24;84686;1330;22590;-79
2022/03/26 00:54:04;;;;;;;70.20;34.70;;;;;;;4.23;62.95;101254.30;84699;1328;22622;-78
2022/03/26 00:56:13;;;;;;;57.50;32.00;;;;;;;4.22;63.00;101250.84;84705;1332;26510;-80
2022/03/26 00:58:22;;;;;;;72.30;35.30;;;;;;;4.22;63.15;101254.13;84708;1329;22750;-79
2022/03/26 01:00:34;;;;;;;77.30;34.70;;;;;;;4.21;63.51;101248.44;84706;1330;22600;-80
2022/03/26 01:02:45;;;;;;;72.90;35.90;;;;;;;4.19;63.48;101247.73;84633;1329;22591;-78
2022/03/26 01:04:54;;;;;;;65.90;31.00;;;;;;;4.18;63.51;101244.80;84646;1329;22774;-74
2022/03/26 01:07:02;;;;;;;64.80;34.30;;;;;;;4.17;64.00;101239.61;84696;1332;24229;-75
2022/03/26 01:09:14;;;;;;;62.80;31.60;;;;;;;4.17;63.77;101235.64;84643;1330;24284;-73
2022/03/26 01:11:23;;;;;;;67.60;32.80;;;;;;;4.18;64.48;101231.32;84696;1328;23940;-73
2022/03/26 01:13:36;;;;;;;68.30;33.70;;;;;;;4.20;64.30;101229.09;84630;1328;25495;-74
2022/03/26 01:15:45;;;;;;;65.10;33.80;;;;;;;4.22;64.60;101226.67;84678;1332;25935;-73
2022/03/26 01:17:54;;;;;;;71.80;34.50;;;;;;;4.24;64.82;101228.07;84682;1319;23996;-74
2022/03/26 01:20:02;;;;;;;68.20;34.90;;;;;;;4.25;64.64;101227.02;84633;1330;22611;-79
2022/03/26 01:22:13;;;;;;;62.80;33.50;;;;;;;4.25;64.65;101231.87;84685;1328;23971;-80
2022/03/26 01:24:22;;;;;;;67.20;33.90;;;;;;;4.24;65.16;101232.04;84640;1330;22599;-74
2022/03/26 01:26:31;;;;;;;59.00;34.10;;;;;;;4.23;64.73;101232.90;84690;1328;22777;-73
2022/03/26 01:28:40;;;;;;;65.20;34.50;;;;;;;4.22;64.97;101231.33;84632;1330;22683;-73
2022/03/26 01:30:48;;;;;;;59.60;31.20;;;;;;;4.21;65.35;101228.75;84659;1331;22764;-73
2022/03/26 01:33:00;;;;;;;61.30;31.30;;;;;;;4.21;65.58;101227.70;84623;1329;25275;-73
2022/03/26 01:35:12;;;;;;;59.70;31.50;;;;;;;4.22;65.40;101229.09;84669;1328;22597;-74
2022/03/26 01:37:24;;;;;;;57.40;31.20;;;;;;;4.21;65.24;101225.29;84586;1327;22616;-73
2022/03/26 01:39:33;;;;;;;56.30;33.10;;;;;;;4.20;65.14;101220.98;84632;1333;22596;-80
2022/03/26 01:41:42;;;;;;;62.30;34.50;;;;;;;4.18;65.09;101220.77;84666;1329;24254;-79
2022/03/26 01:43:51;;;;;;;60.00;33.20;;;;;;;4.17;65.22;101219.07;84701;1331;22654;-79
2022/03/26 01:45:59;;;;;;;72.20;36.50;;;;;;;4.13;65.48;101210.77;84681;1331;25262;-79
2022/03/26 01:48:08;;;;;;;59.30;32.60;;;;;;;4.11;65.61;101206.10;84614;1329;22590;-78
2022/03/26 01:50:19;;;;;;;;;;;;;;;4.09;65.71;101203.00;84671;1331;23906;-79
2022/03/26 01:52:28;;;;;;;66.20;34.80;;;;;;;4.05;65.83;101204.88;84688;1332;22822;-79
2022/03/26 01:54:40;;;;;;;64.60;30.90;;;;;;;4.03;65.66;101203.49;84625;1330;22811;-73
2022/03/26 01:56:49;;;;;;;62.70;32.70;;;;;;;4.01;65.60;101202.98;84673;1332;22595;-79
2022/03/26 01:59:00;;;;;;;62.50;32.70;;;;;;;3.99;65.72;101199.69;84691;1325;22661;-73
2022/03/26 02:01:11;;;;;;;56.20;31.60;;;;;;;3.99;66.56;101195.38;84613;1328;25459;-72
2022/03/26 02:03:20;;;;;;;62.00;32.30;;;;;;;4.00;66.52;101188.31;84723;1324;22567;-79
2022/03/26 02:05:32;;;;;;;54.00;30.20;;;;;;;4.03;66.38;101187.60;84635;1332;22605;-80
2022/03/26 02:07:42;;;;;;;58.10;31.60;;;;;;;4.05;66.35;101186.59;84690;1328;22810;-80
2022/03/26 02:09:50;;;;;;;70.90;33.40;;;;;;;4.06;66.34;101184.52;84637;1327;22843;-73
2022/03/26 02:12:01;;;;;;;60.50;31.30;;;;;;;4.06;66.53;101180.38;84708;1329;24355;-73
2022/03/26 02:14:10;;;;;;;63.90;32.70;;;;;;;4.06;66.59;101177.27;84664;1329;25441;-73
2022/03/26 02:16:19;;;;;;;60.70;33.10;;;;;;;4.05;66.46;101172.42;84689;1331;22590;-73
2022/03/26 02:18:27;;;;;;;63.30;32.70;;;;;;;4.03;66.64;101168.28;84639;1333;22605;-80
2022/03/26 02:20:38;;;;;;;59.00;30.70;;;;;;;4.01;66.85;101162.23;84671;1325;22951;-79
2022/03/26 02:22:47;;;;;;;54.00;31.50;;;;;;;4.00;66.60;101160.17;84687;1331;24061;-80
2022/03/26 02:24:55;;;;;;;66.50;32.90;;;;;;;3.99;67.31;101156.54;84688;1331;25314;-74
2022/03/26 02:27:08;;;;;;;61.60;29.50;;;;;;;4.00;66.77;101161.20;84677;1331;22940;-74
2022/03/26 02:29:17;;;;;;;60.30;31.70;;;;;;;4.00;66.98;101156.02;84676;1328;22603;-80
2022/03/26 02:31:27;;;;;;;63.10;32.20;;;;;;;4.00;66.89;101154.29;84712;1320;26569;-79
2022/03/26 02:33:35;;;;;;;60.80;31.50;;;;;;;3.99;66.94;101161.55;84698;1324;22586;-73
2022/03/26 02:35:44;;;;;;;61.30;33.50;;;;;;;3.98;67.04;101155.84;84655;1332;23925;-74
2022/03/26 02:37:56;;;;;;;57.40;30.30;;;;;;;3.96;67.28;101153.25;84680;1330;25432;-73
2022/03/26 02:40:07;;;;;;;63.50;33.00;;;;;;;3.96;67.54;101146.52;84605;1329;22620;-74
2022/03/26 02:42:17;;;;;;;62.30;33.00;;;;;;;3.94;67.54;101143.41;84699;1327;24290;-74
2022/03/26 02:44:25;;;;;;;63.10;31.60;;;;;;;3.91;67.52;101139.27;84627;1333;25250;-80
2022/03/26 02:46:33;;;;;;;60.70;32.20;;;;;;;3.89;67.63;101133.21;84676;1331;22596;-80
2022/03/26 02:48:44;;;;;;;56.80;29.70;;;;;;;3.87;67.48;101131.14;84658;1333;22602;-79
2022/03/26 02:50:52;;;;;;;62.10;32.30;;;;;;;3.86;67.59;101126.65;84646;1333;22853;-80
2022/03/26 02:53:01;;;;;;;61.00;31.80;;;;;;;3.86;67.60;101121.82;84700;1331;22694;-74
2022/03/26 02:55:11;;;;;;;63.30;32.10;;;;;;;3.86;67.54;101121.65;84694;1329;24278;-73
2022/03/26 02:57:18;;;;;;;;;;;;;;;3.85;67.39;101118.88;84641;1333;22588;-74
2022/03/26 02:59:27;;;;;;;61.40;31.20;;;;;;;3.82;67.63;101113.35;84694;1329;23880;-75
2022/03/26 03:01:35;;;;;;;63.90;33.10;;;;;;;3.82;67.70;101111.80;84666;1331;25462;-74
2022/03/26 03:03:44;;;;;;;57.10;29.50;;;;;;;3.79;67.86;101113.52;84621;1330;25452;-80
2022/03/26 03:05:56;;;;;;;54.60;30.80;;;;;;;3.76;67.67;101115.92;84674;1328;22650;-80
2022/03/26 03:08:08;;;;;;;56.70;30.10;;;;;;;3.71;67.61;101112.30;84700;1329;24305;-73
2022/03/26 03:10:19;;;;;;;66.20;33.70;;;;;;;3.68;67.96;101102.11;84601;1333;26915;-74
2022/03/26 03:12:31;;;;;;;61.90;30.50;;;;;;;3.66;68.05;101096.94;84682;1328;24244;-74
2022/03/26 03:14:42;;;;;;;54.30;29.60;;;;;;;3.66;68.04;101096.94;84650;1329;22614;-72
2022/03/26 03:16:54;;;;;;;57.60;30.10;;;;;;;3.66;68.14;101095.73;84688;1324;22640;-74
2022/03/26 03:19:02;;;;;;;58.30;29.80;;;;;;;3.68;68.35;101094.34;84615;1330;24004;-74
2022/03/26 03:21:14;;;;;;;63.50;33.20;;;;;;;3.69;68.28;101092.09;84612;1329;22634;-73
2022/03/26 03:23:25;;;;;;;59.10;31.60;;;;;;;3.72;68.55;101089.17;84611;1329;25445;-73
2022/03/26 03:25:36;;;;;;;68.30;33.30;;;;;;;3.74;68.92;101080.20;84672;1329;22849;-73
2022/03/26 03:27:48;;;;;;;60.80;32.90;;;;;;;3.76;68.86;101082.28;84654;1326;22626;-73
2022/03/26 03:29:57;;;;;;;59.80;33.00;;;;;;;3.77;68.88;101083.66;84680;1329;26453;-72
2022/03/26 03:32:07;;;;;;;65.60;34.40;;;;;;;3.78;68.95;101086.94;84664;1327;22581;-73
2022/03/26 03:34:19;;;;;;;70.00;32.70;;;;;;;3.77;68.85;101086.42;84665;1328;22637;-73
2022/03/26 03:36:30;;;;;;;59.50;33.70;;;;;;;3.76;68.67;101088.16;84651;1333;25281;-74
2022/03/26 03:38:39;;;;;;;61.80;32.60;;;;;;;3.76;68.57;101089.89;84693;1329;23054;-73
2022/03/26 03:40:50;;;;;;;59.00;33.10;;;;;;;3.75;68.80;101087.80;84446;1329;284122;-73
2022/03/26 03:43:07;;;;;;;63.40;32.90;;;;;;;3.76;69.02;101084.88;84677;1329;25445;-75
2022/03/26 03:45:16;;;;;;;64.60;31.40;;;;;;;3.76;69.15;101077.45;84670;1332;22602;-73
2022/03/26 03:47:27;;;;;;;63.10;35.50;;;;;;;3.78;69.13;101078.30;84710;1331;22769;-74
2022/03/26 03:49:39;;;;;;;68.40;33.30;;;;;;;3.80;69.14;101073.15;84617;1329;22699;-72
2022/03/26 03:51:50;;;;;;;63.30;32.80;;;;;;;3.81;69.49;101070.90;84684;1329;22626;-74
2022/03/26 03:53:59;;;;;;;66.80;35.50;;;;;;;3.83;69.60;101074.52;84659;1328;24174;-74
2022/03/26 03:56:10;;;;;;;62.80;33.20;;;;;;;3.83;69.45;101070.54;84624;1329;25379;-73
2022/03/26 03:58:19;;;;;;;61.40;33.60;;;;;;;3.83;69.67;101071.41;84623;1331;22947;-73
2022/03/26 04:00:31;;;;;;;55.90;32.10;;;;;;;3.83;69.98;101066.58;84618;1329;22771;-73
2022/03/26 04:02:42;;;;;;;65.20;32.20;;;;;;;3.83;69.84;101059.84;84692;1328;24459;-74
2022/03/26 04:04:51;;;;;;;66.90;32.20;;;;;;;3.84;70.13;101056.92;84650;1329;22597;-73
2022/03/26 04:07:02;;;;;;;54.60;30.20;;;;;;;3.86;70.51;101048.64;84696;1329;22625;-73
2022/03/26 04:09:14;;;;;;;64.20;30.80;;;;;;;3.88;70.47;101049.83;84723;1332;24239;-73
2022/03/26 04:11:23;;;;;;;61.50;32.10;;;;;;;3.92;70.31;101048.98;84648;1329;25453;-73
2022/03/26 04:13:35;;;;;;;56.40;29.70;;;;;;;3.95;70.64;101045.54;84644;1329;22622;-79
2022/03/26 04:15:44;;;;;;;60.30;32.60;;;;;;;3.98;70.71;101036.37;84613;1333;22596;-79
2022/03/26 04:17:57;;;;;;;61.90;32.60;;;;;;;4.01;70.53;101034.30;84642;1332;22619;-79
2022/03/26 04:20:10;;;;;;;58.60;31.60;;;;;;;4.02;70.54;101032.23;84660;1328;22603;-74
2022/03/26 04:22:19;;;;;;;58.30;32.40;;;;;;;4.02;70.70;101027.73;84653;1329;22603;-73
2022/03/26 04:24:27;;;;;;;58.90;31.00;;;;;;;4.02;70.69;101025.48;84661;1331;22619;-73
2022/03/26 04:26:39;;;;;;;57.20;29.70;;;;;;;4.03;70.53;101027.56;84619;1329;24073;-73
2022/03/26 04:28:51;;;;;;;54.80;28.90;;;;;;;4.04;70.28;101031.20;84699;1328;22600;-73
2022/03/26 04:31:00;;;;;;;60.10;30.00;;;;;;;4.04;70.16;101031.89;84640;1327;22605;-76
2022/03/26 04:33:12;;;;;;;60.40;30.90;;;;;;;4.05;70.00;101031.20;84626;1331;22897;-78
2022/03/26 04:35:25;;;;;;;54.10;28.30;;;;;;;4.07;70.16;101030.84;84668;1332;22642;-79
2022/03/26 04:37:34;;;;;;;50.20;29.20;;;;;;;4.09;70.16;101030.67;84700;1329;22590;-80
2022/03/26 04:39:45;;;;;;;50.50;29.30;;;;;;;4.10;69.95;101033.27;84648;1329;23076;-72
2022/03/26 04:41:53;;;;;;;52.10;28.60;;;;;;;4.11;69.99;101032.41;84678;1325;22612;-74
2022/03/26 04:44:02;;;;;;;61.60;30.50;;;;;;;4.11;69.99;101030.15;84644;1330;25319;-73
2022/03/26 04:46:10;;;;;;;61.70;30.80;;;;;;;4.09;69.92;101022.39;84590;1328;23935;-73
2022/03/26 04:48:22;;;;;;;61.70;30.30;;;;;;;4.09;70.09;101019.30;84666;1324;24239;-73
2022/03/26 04:50:30;;;;;;;54.40;28.10;;;;;;;4.12;70.08;101018.07;84681;1324;23169;-74
2022/03/26 04:52:41;;;;;;;52.60;26.40;;;;;;;4.15;70.17;101016.52;84640;1329;22669;-73
2022/03/26 04:54:50;;;;;;;50.50;27.10;;;;;;;4.17;70.20;101018.75;84613;1329;22891;-74
2022/03/26 04:57:01;;;;;;;52.50;28.10;;;;;;;4.21;70.32;101015.81;84679;1324;24359;-73
2022/03/26 04:59:09;;;;;;;57.30;27.10;;;;;;;4.27;70.31;101007.68;84693;1330;22610;-80
2022/03/26 05:01:18;;;;;;;51.70;27.40;;;;;;;4.34;70.45;101006.80;84698;1329;24252;-80
2022/03/26 05:03:28;;;;;;;51.00;28.10;;;;;;;4.41;70.29;101001.61;84655;1328;22831;-80
2022/03/26 05:05:36;;;;;;;48.90;27.50;;;;;;;4.47;70.35;101000.91;84668;1321;22892;-80
2022/03/26 05:07:47;;;;;;;50.80;27.60;;;;;;;4.54;70.36;100994.32;84708;1328;22599;-80
2022/03/26 05:09:56;;;;;;;51.10;27.90;;;;;;;4.64;70.25;100991.17;84708;1330;22749;-79
2022/03/26 05:12:05;;;;;;;50.30;26.40;;;;;;;4.92;70.52;100986.72;84665;1329;22631;-79
2022/03/26 05:14:14;;;;;;;50.40;26.50;;;;;;;5.53;71.05;100983.56;84724;1325;22622;-74
2022/03/26 05:16:25;;;;;;;46.40;25.70;;;;;;;6.25;70.87;100980.70;84688;1329;25953;-73
2022/03/26 05:18:34;;;;;;;45.80;25.00;;;;;;;7.01;69.78;100978.05;84688;1329;22629;-74
2022/03/26 05:20:43;;;;;;;44.60;26.40;;;;;;;7.79;68.93;100973.92;84632;1333;22689;-73
2022/03/26 05:22:52;;;;;;;47.60;23.90;;;;;;;8.53;67.71;100974.65;84662;1329;22587;-73
2022/03/26 05:25:03;;;;;;;41.10;23.90;;;;;;;9.25;65.74;100964.59;84671;1327;23945;-79
2022/03/26 05:27:15;;;;;;;44.30;24.50;;;;;;;9.74;63.65;100963.42;84636;1332;22629;-79
2022/03/26 05:29:24;;;;;;;41.70;24.40;;;;;;;10.00;61.84;100961.71;84669;1328;24306;-79
2022/03/26 05:31:32;;;;;;;43.70;25.70;;;;;;;9.91;60.38;100958.45;84664;1332;22729;-80
2022/03/26 05:33:41;;;;;;;37.10;23.60;;;;;;;9.69;59.66;100951.86;84618;1329;25589;-80
2022/03/26 05:35:49;;;;;;;41.60;25.20;;;;;;;9.43;59.10;100953.21;84656;1320;22621;-79
2022/03/26 05:38:04;;;;;;;41.70;24.20;;;;;;;9.18;58.97;100948.40;84677;1325;22812;-80
2022/03/26 05:40:16;;;;;;;43.10;25.00;;;;;;;8.92;59.14;100943.59;84706;1324;22655;-73
2022/03/26 05:42:28;;;;;;;47.50;25.40;;;;;;;8.79;59.68;100940.55;84693;1329;22672;-74
2022/03/26 05:44:36;;;;;;;45.40;24.10;;;;;;;8.75;59.98;100944.66;84642;1329;22609;-79
2022/03/26 05:46:48;;;;;;;46.10;26.50;;;;;;;8.70;59.82;100939.71;84645;1326;22602;-80
2022/03/26 05:48:57;;;;;;;43.50;25.60;;;;;;;8.67;60.01;100936.83;84707;1329;22793;-73
2022/03/26 05:51:05;;;;;;;38.60;23.10;;;;;;;8.69;60.24;100944.27;84667;1331;22861;-73
2022/03/26 05:53:13;;;;;;;42.70;22.90;;;;;;;8.78;60.51;100949.81;84675;1330;22658;-74
2022/03/26 05:55:22;;;;;;;42.40;24.40;;;;;;;9.10;60.81;100948.40;84616;1330;22633;-74
2022/03/26 05:57:30;;;;;;;41.50;25.10;;;;;;;9.89;61.11;100949.79;84661;1327;23966;-74
2022/03/26 05:59:42;;;;;;;41.70;23.70;;;;;;;10.93;61.25;100950.02;84642;1329;22671;-73
2022/03/26 06:01:50;;;;;;;44.70;26.00;;;;;;;12.10;59.00;100944.14;84668;1329;22631;-74
2022/03/26 06:04:02;;;;;;;41.20;23.30;;;;;;;13.14;56.81;100939.94;84520;1330;22619;-80
2022/03/26 06:06:11;;;;;;;39.40;21.40;;;;;;;14.00;54.00;100936.23;84673;1329;22575;-80
2022/03/26 06:08:19;;;;;;;36.20;20.60;;;;;;;14.54;51.74;100933.33;84644;1329;22869;-80
2022/03/26 06:10:28;;;;;;;35.30;22.10;;;;;;;15.36;50.60;100917.69;84679;1323;22637;-80
2022/03/26 06:12:39;;;;;;;33.50;20.60;;;;;;;16.28;48.43;100918.98;84669;1330;24218;-80
2022/03/26 06:14:48;;;;;;;27.70;20.40;;;;;;;17.05;46.01;100915.19;84683;1331;22673;-74
2022/03/26 06:16:56;;;;;;;32.80;19.70;;;;;;;17.80;44.50;100918.08;84630;1324;22611;-74
2022/03/26 06:19:07;;;;;;;32.00;19.10;;;;;;;18.51;42.43;100913.94;84657;1329;24363;-73
2022/03/26 06:21:18;;;;;;;26.30;18.00;;;;;;;19.13;41.41;100904.86;84680;1332;23065;-74
2022/03/26 06:23:27;;;;;;;31.40;16.70;;;;;;;19.73;40.12;100909.04;84604;1327;22624;-74
2022/03/26 06:25:35;;;;;;;27.10;15.70;;;;;;;20.24;38.72;100896.33;84680;1324;24192;-73
2022/03/26 06:27:43;;;;;;;26.80;16.40;;;;;;;20.66;37.56;100889.64;84602;1329;22726;-74
2022/03/26 06:29:51;;;;;;;21.90;14.50;;;;;;;20.97;36.23;100895.91;84700;1328;22676;-81
2022/03/26 06:32:03;;;;;;;23.40;14.30;;;;;;;21.19;35.50;100891.81;84606;1329;25355;-82
2022/03/26 06:34:12;;;;;;;26.30;14.10;;;;;;;21.19;34.36;100892.73;84688;1329;23960;-81
2022/03/26 06:36:21;;;;;;;25.00;14.00;;;;;;;21.05;34.26;100885.95;84629;1333;22647;-80
2022/03/26 06:38:31;;;;;;;27.10;14.30;;;;;;;21.03;34.47;100886.05;84654;1326;22620;-74
2022/03/26 06:40:40;;;;;;;33.00;14.20;;;;;;;21.03;34.21;100886.27;84659;1328;22846;-73
2022/03/26 06:42:48;;;;;;;29.10;15.10;;;;;;;20.86;34.02;100885.17;84620;1329;22728;-74
2022/03/26 06:44:59;;;;;;;21.80;14.90;;;;;;;20.79;33.71;100889.98;84705;1329;22613;-81
2022/03/26 06:47:08;;;;;;;25.50;14.90;;;;;;;20.68;33.91;100887.05;84630;1314;22615;-79
2022/03/26 06:49:22;;;;;;;21.50;14.00;;;;;;;20.88;33.85;100884.13;84680;1331;24254;-81
2022/03/26 06:51:31;;;;;;;26.90;15.40;;;;;;;21.31;33.53;100887.02;84641;1328;22614;-81
2022/03/26 06:53:43;;;;;;;21.70;15.00;;;;;;;21.75;33.02;100890.96;84712;1332;22624;-82
2022/03/26 06:55:51;;;;;;;25.80;14.70;;;;;;;22.24;32.28;100882.59;84649;1329;22603;-81
2022/03/26 06:58:04;;;;;;;20.60;15.00;;;;;;;22.53;32.02;100883.43;84686;1328;22839;-79
2022/03/26 07:00:15;;;;;;;24.00;14.50;;;;;;;22.84;31.06;100881.29;84698;1323;22603;-74
2022/03/26 07:02:24;;;;;;;24.50;15.10;;;;;;;23.12;30.54;100884.42;84692;1329;22645;-75
2022/03/26 07:04:33;;;;;;;18.90;13.60;;;;;;;23.09;29.98;100881.46;84691;1328;22604;-74
2022/03/26 07:06:45;;;;;;;21.50;15.30;;;;;;;22.75;29.97;100879.02;84691;1329;22688;-75
2022/03/26 07:08:57;;;;;;;23.60;15.00;;;;;;;22.29;29.88;100885.23;84706;1327;22604;-82
2022/03/26 07:11:06;;;;;;;25.60;14.90;;;;;;;21.47;30.36;100879.27;84679;1329;22590;-82
2022/03/26 07:13:14;;;;;;;33.70;15.70;;;;;;;21.04;31.68;100876.20;84700;1331;22632;-81
2022/03/26 07:15:23;;;;;;;33.30;16.00;;;;;;;21.35;31.35;100874.46;84666;1331;22740;-80
2022/03/26 07:17:34;;;;;;;28.50;15.50;;;;;;;21.59;31.20;100874.64;84687;1328;25834;-81
2022/03/26 07:19:42;;;;;;;26.40;15.00;;;;;;;21.70;30.92;100869.56;84687;1323;22810;-81
2022/03/26 07:21:52;;;;;;;24.70;15.50;;;;;;;21.90;31.00;100874.56;84702;1329;24287;-81
2022/03/26 07:24:04;;;;;;;24.80;16.80;;;;;;;22.38;30.66;100873.34;84719;1329;25305;-75
2022/03/26 07:26:14;;;;;;;21.60;15.10;;;;;;;22.92;30.26;100864.10;84662;1327;23978;-73
2022/03/26 07:28:26;;;;;;;23.40;16.00;;;;;;;23.52;29.12;100867.48;84716;1327;22581;-73
2022/03/26 07:30:34;;;;;;;24.20;16.30;;;;;;;24.03;28.76;100869.08;84678;1324;22728;-74
2022/03/26 07:32:44;;;;;;;21.70;16.70;;;;;;;24.55;28.12;100868.44;84682;1330;22751;-73
2022/03/26 07:34:56;;;;;;;21.90;16.10;;;;;;;24.69;27.44;100866.67;84698;1327;22603;-79
2022/03/26 07:37:06;;;;;;;24.60;15.60;;;;;;;24.36;27.32;100857.97;84693;1329;25569;-77
2022/03/26 07:39:16;;;;;;;23.60;14.70;;;;;;;24.11;27.05;100863.91;84677;1325;25465;-74
2022/03/26 07:41:27;;;;;;;;;;;;;;;23.97;27.39;100861.91;84694;1328;24102;-74
2022/03/26 07:43:39;;;;;;;18.20;14.20;;;;;;;24.06;27.64;100868.60;84700;1324;24851;-75
2022/03/26 07:45:52;;;;;;;18.20;14.80;;;;;;;24.29;27.66;100861.06;84672;1330;22604;-73
2022/03/26 07:48:07;;;;;;;25.60;15.40;;;;;;;24.72;27.19;100858.20;84642;1330;22774;-76
2022/03/26 07:50:17;;;;;;;20.60;14.80;;;;;;;25.15;26.79;100860.13;84630;1330;25314;-75
2022/03/26 07:52:26;;;;;;;19.40;14.00;;;;;;;25.34;26.09;100857.42;84622;1330;22589;-74
2022/03/26 07:54:37;;;;;;;25.10;17.10;;;;;;;25.06;25.91;100858.70;84686;1330;22585;-79
2022/03/26 07:56:47;;;;;;;28.60;15.90;;;;;;;24.51;26.09;100859.20;84610;1329;25594;-78
2022/03/26 07:58:58;;;;;;;20.60;14.70;;;;;;;23.73;26.63;100869.66;84713;1324;22751;-81
2022/03/26 08:01:10;;;;;;;22.50;15.30;;;;;;;23.03;27.75;100867.66;84671;1321;22864;-81
2022/03/26 08:03:20;;;;;;;22.80;13.80;;;;;;;23.00;28.40;100861.20;84694;1330;25478;-74
2022/03/26 08:05:32;;;;;;;20.60;13.70;;;;;;;23.21;28.45;100858.39;84595;1329;22824;-74
2022/03/26 08:10:37;;;;;;;21.60;13.80;;;;;;;22.79;28.51;100858.77;84693;1332;22599;-74
2022/03/26 08:12:46;;;;;;;16.50;12.90;;;;;;;22.67;29.28;100859.92;84610;1327;22606;-75
2022/03/26 08:14:55;;;;;;;22.40;13.40;;;;;;;22.84;29.34;100851.45;84664;1330;24402;-81
2022/03/26 08:17:05;;;;;;;14.90;11.40;;;;;;;23.18;28.94;100855.79;84665;1329;23979;-79
2022/03/26 08:19:14;;;;;;;19.40;9.50;;;;;;;23.31;28.70;100848.07;84723;1330;22599;-74
2022/03/26 08:21:23;;;;;;;18.50;9.50;;;;;;;23.02;28.84;100854.23;84630;1329;24340;-80
2022/03/26 08:23:33;;;;;;;16.70;8.80;;;;;;;22.88;29.51;100855.94;84680;1329;22637;-74
2022/03/26 08:28:12;;;;;;;13.60;10.00;;;;;;;23.12;29.18;100854.88;84680;1330;22605;-78
2022/03/26 08:30:28;;;;;;;15.80;9.60;;;;;;;22.98;29.53;100866.69;84607;1327;22673;-80
2022/03/26 08:32:37;;;;;;;16.30;9.90;;;;;;;22.53;29.54;100865.85;84667;1328;22705;-79
2022/03/26 08:34:50;;;;;;;18.20;9.80;;;;;;;21.91;30.14;100865.80;84715;1323;22812;-80
2022/03/26 08:37:09;;;;;;;21.30;9.90;;;;;;;21.19;31.05;100869.66;84702;1327;22714;-78
2022/03/26 08:39:20;;;;;;;18.40;11.50;;;;;;;20.40;31.97;100874.30;84682;1329;22615;-75
2022/03/26 08:41:29;;;;;;;22.40;11.70;;;;;;;19.93;32.76;100880.91;84679;1328;23906;-75
2022/03/26 08:43:37;;;;;;;22.00;11.60;;;;;;;19.45;33.41;100880.98;84693;1330;24370;-82
2022/03/26 08:45:47;;;;;;;21.50;10.40;;;;;;;19.04;34.09;100879.67;84672;1330;22593;-83
2022/03/26 08:47:57;;;;;;;26.60;12.20;;;;;;;18.63;34.84;100888.48;84613;1332;24050;-82
2022/03/26 08:50:13;;;;;;;28.20;12.30;;;;;;;18.27;35.67;100890.52;84569;1326;22596;-75
2022/03/26 08:52:23;;;;;;;19.10;12.40;;;;;;;17.83;36.39;100897.44;84681;1321;22604;-76
2022/03/26 08:54:32;;;;;;;25.30;12.70;;;;;;;17.50;37.00;100899.88;84695;1328;22611;-82
2022/03/26 08:56:45;;;;;;;24.30;14.70;;;;;;;17.11;37.73;100901.39;84621;1329;22544;-82
2022/03/26 08:58:53;;;;;;;21.80;13.20;;;;;;;16.87;38.16;100907.17;84679;1329;25436;-79
2022/03/26 09:01:04;;;;;;;20.60;13.40;;;;;;;16.62;38.88;100907.33;84611;1328;24286;-75
2022/03/26 09:03:17;;;;;;;22.40;13.50;;;;;;;16.33;39.19;100907.96;84676;1328;24219;-81
2022/03/26 09:05:31;;;;;;;28.00;13.70;;;;;;;16.16;39.71;100907.12;84666;1330;22583;-81
2022/03/26 09:07:42;;;;;;;25.50;13.30;;;;;;;15.99;40.36;100917.36;84596;1333;22624;-75
2022/03/26 09:09:51;;;;;;;25.20;14.20;;;;;;;15.77;40.63;100915.48;84679;1329;22636;-81
2022/03/26 09:11:59;;;;;;;27.40;14.40;;;;;;;15.60;41.16;100913.51;84665;1328;22676;-81
2022/03/26 09:14:11;;;;;;;23.60;13.60;;;;;;;15.47;41.55;100913.98;84667;1328;22840;-75
2022/03/26 09:16:20;;;;;;;20.20;13.60;;;;;;;15.39;42.14;100918.92;84674;1330;22620;-74
2022/03/26 09:18:32;;;;;;;24.00;14.20;;;;;;;15.22;42.11;100928.73;84605;1326;22611;-82
2022/03/26 09:20:43;;;;;;;24.80;14.80;;;;;;;15.05;42.42;100920.59;84660;1329;22826;-82
2022/03/26 09:22:52;;;;;;;27.20;15.60;;;;;;;14.91;42.53;100913.84;84667;1329;22618;-81
2022/03/26 09:25:02;;;;;;;26.50;14.80;;;;;;;14.88;43.08;100921.74;84631;1328;22852;-80
2022/03/26 09:27:22;;;;;;;31.40;14.90;;;;;;;14.83;43.34;100922.34;84647;1327;22579;-75
2022/03/26 09:29:30;;;;;;;22.50;13.30;;;;;;;14.79;43.59;100919.21;84701;1328;22610;-81
2022/03/26 09:31:40;;;;;;;26.30;14.80;;;;;;;14.74;43.81;100919.23;84681;1328;25475;-81
2022/03/26 09:33:50;;;;;;;27.80;15.50;;;;;;;14.71;43.97;100920.95;84678;1324;22607;-80
2022/03/26 09:36:03;;;;;;;25.50;15.70;;;;;;;14.64;44.01;100922.67;84672;1328;22589;-80
2022/03/26 09:38:12;;;;;;;23.90;15.50;;;;;;;14.63;44.46;100923.59;84652;1329;22616;-75
2022/03/26 09:40:21;;;;;;;19.50;14.70;;;;;;;14.55;44.47;100918.34;84640;1329;22869;-74
2022/03/26 09:42:30;;;;;;;22.70;15.30;;;;;;;14.52;44.70;100919.95;84712;1326;25353;-75
2022/03/26 09:44:40;;;;;;;24.00;15.10;;;;;;;14.48;44.74;100919.90;84655;1324;23018;-75
2022/03/26 09:46:51;;;;;;;22.50;14.60;;;;;;;14.45;44.88;100917.40;84666;1324;22630;-75
2022/03/26 09:49:03;;;;;;;24.70;16.60;;;;;;;14.43;45.16;100917.27;84697;1329;22752;-76
2022/03/26 09:51:16;;;;;;;25.20;16.20;;;;;;;14.36;45.16;100922.89;84630;1323;23053;-81
2022/03/26 09:53:30;;;;;;;26.90;15.00;;;;;;;14.25;45.27;100932.67;84688;1329;22926;-80
2022/03/26 09:55:38;;;;;;;23.10;15.10;;;;;;;14.15;45.46;100929.63;84662;1329;24204;-75
2022/03/26 09:57:47;;;;;;;22.40;16.20;;;;;;;14.03;45.90;100933.48;84608;1330;22603;-74
2022/03/26 09:59:59;;;;;;;20.50;14.80;;;;;;;13.89;46.14;100932.66;84693;1328;22690;-75
2022/03/26 10:02:13;;;;;;;23.80;16.10;;;;;;;13.76;46.42;100932.37;84674;1329;24179;-74